Time;durP1;ratioP1;P1;durP2;ratioP2;P2;SDS_P1;SDS_P2;PMS_P1;PMS_P2;Temp;Humidity;BMP_temperature;BMP_pressure;BME280_temperature;BME280_humidity;BME280_pressure;Samples;Min_cycle;Max_cycle;Signal;HPM_P1;HPM_P2
2021/07/07 00:00:18;;;;;;;8.10;6.60;;;17.30;99.90;;;;;;4995007;28;20422;-66
2021/07/07 00:02:44;;;;;;;10.17;9.27;;;17.40;99.90;;;;;;4994645;28;20477;-65
2021/07/07 00:05:12;;;;;;;7.37;6.87;;;17.40;99.90;;;;;;4995172;28;20418;-64
2021/07/07 00:07:38;;;;;;;8.83;8.03;;;17.50;99.90;;;;;;4994928;28;20450;-66
2021/07/07 00:10:05;;;;;;;8.00;7.20;;;17.40;99.90;;;;;;4994590;28;20462;-67
2021/07/07 00:12:31;;;;;;;7.13;6.53;;;17.50;99.90;;;;;;4994884;28;20179;-65
2021/07/07 00:14:57;;;;;;;9.67;8.20;;;17.50;99.90;;;;;;5018662;28;20467;-66
2021/07/07 00:17:23;;;;;;;8.20;7.57;;;17.40;99.90;;;;;;5034172;28;20201;-65
2021/07/07 00:19:49;;;;;;;9.80;8.40;;;17.50;99.90;;;;;;5033922;28;20417;-66
2021/07/07 00:22:16;;;;;;;9.37;8.57;;;17.40;99.90;;;;;;5034089;28;20174;-66
2021/07/07 00:24:42;;;;;;;10.70;9.67;;;17.30;99.90;;;;;;5032889;28;20495;-66
2021/07/07 00:27:09;;;;;;;10.07;9.27;;;17.30;99.90;;;;;;5034002;28;20441;-66
2021/07/07 00:29:35;;;;;;;11.10;10.00;;;17.20;99.90;;;;;;5033641;28;20466;-66
2021/07/07 00:32:00;;;;;;;14.83;12.80;;;17.30;99.90;;;;;;5033987;28;20507;-65
2021/07/07 00:34:26;;;;;;;10.87;9.83;;;17.40;99.90;;;;;;5033952;28;20733;-66
2021/07/07 00:36:51;;;;;;;12.90;11.70;;;17.30;99.90;;;;;;5033748;28;20190;-66
2021/07/07 00:39:17;;;;;;;13.40;12.10;;;17.30;99.90;;;;;;5031766;28;20178;-65
2021/07/07 00:41:42;;;;;;;13.10;11.30;;;17.30;99.90;;;;;;5014002;28;20198;-66
2021/07/07 00:44:08;;;;;;;11.90;10.90;;;17.40;99.90;;;;;;5014021;28;20186;-66
2021/07/07 00:46:34;;;;;;;11.37;10.27;;;17.40;99.90;;;;;;5013902;28;20168;-65
2021/07/07 00:49:00;;;;;;;11.17;9.33;;;17.40;99.90;;;;;;5013444;28;20205;-65
2021/07/07 00:51:25;;;;;;;12.30;11.13;;;17.40;99.90;;;;;;5013845;28;20517;-66
2021/07/07 00:53:53;;;;;;;11.30;10.13;;;17.30;99.90;;;;;;5013681;28;20171;-66
2021/07/07 00:56:19;;;;;;;11.23;10.17;;;17.30;99.90;;;;;;5029161;28;20207;-66
2021/07/07 00:58:51;;;;;;;11.20;10.20;;;17.30;99.90;;;;;;5013198;28;20500;-65
2021/07/07 01:01:17;;;;;;;10.87;9.90;;;17.40;99.90;;;;;;5013638;28;20194;-66
2021/07/07 01:03:43;;;;;;;12.97;11.97;;;17.40;99.90;;;;;;5013469;28;20418;-66
2021/07/07 01:06:08;;;;;;;11.53;10.53;;;17.40;99.90;;;;;;5013760;28;20511;-66
2021/07/07 01:08:34;;;;;;;11.57;10.57;;;17.40;99.90;;;;;;5013091;28;20234;-66
2021/07/07 01:10:59;;;;;;;12.17;11.07;;;17.30;99.90;;;;;;5013487;28;20177;-66
2021/07/07 01:13:25;;;;;;;11.93;10.50;;;17.40;99.90;;;;;;5013450;28;20320;-65
2021/07/07 01:15:54;;;;;;;12.70;11.40;;;17.40;99.90;;;;;;5032657;28;20216;-65
2021/07/07 01:18:19;;;;;;;12.87;11.57;;;17.30;99.90;;;;;;5032847;28;20182;-66
2021/07/07 01:20:45;;;;;;;12.17;11.07;;;17.40;99.90;;;;;;5032935;28;20467;-65
2021/07/07 01:23:10;;;;;;;13.40;12.10;;;17.30;99.90;;;;;;5032886;28;20166;-66
2021/07/07 01:25:38;;;;;;;12.20;11.00;;;17.30;99.90;;;;;;5032910;28;20656;-66
2021/07/07 01:28:06;;;;;;;14.80;13.30;;;17.30;99.90;;;;;;5032739;28;20243;-66
2021/07/07 01:30:32;;;;;;;12.83;11.50;;;17.10;99.90;;;;;;5032587;28;20428;-65
2021/07/07 01:32:57;;;;;;;12.53;11.43;;;17.10;99.90;;;;;;5032808;28;20436;-65
2021/07/07 01:35:23;;;;;;;12.20;11.00;;;17.10;99.90;;;;;;5032426;28;20421;-66
2021/07/07 01:37:51;;;;;;;13.63;12.33;;;17.10;99.90;;;;;;5032684;28;20197;-66
2021/07/07 01:40:22;;;;;;;13.00;11.80;;;17.10;99.90;;;;;;5022536;28;20931;-66
2021/07/07 01:42:49;;;;;;;12.73;11.73;;;17.10;99.90;;;;;;5012946;28;20425;-66
2021/07/07 01:45:14;;;;;;;13.77;12.47;;;17.10;99.90;;;;;;5012825;28;20501;-66
2021/07/07 01:47:41;;;;;;;13.00;11.70;;;17.00;99.90;;;;;;5012722;28;20528;-66
2021/07/07 01:50:09;;;;;;;14.10;12.80;;;16.90;99.90;;;;;;5012462;28;20197;-66
2021/07/07 01:52:35;;;;;;;17.10;14.30;;;16.80;99.90;;;;;;5012629;28;20414;-66
2021/07/07 01:55:01;;;;;;;16.33;14.67;;;16.80;99.90;;;;;;5012660;28;20420;-66
2021/07/07 01:57:27;;;;;;;15.97;14.43;;;16.80;99.90;;;;;;5012500;28;20297;-66
2021/07/07 01:59:53;;;;;;;14.90;13.43;;;16.90;99.90;;;;;;5012323;28;20588;-65
2021/07/07 02:02:19;;;;;;;14.93;13.03;;;16.80;99.90;;;;;;5012863;28;20453;-66
2021/07/07 02:04:44;;;;;;;15.93;14.03;;;16.90;99.90;;;;;;5012603;28;20174;-64
2021/07/07 02:07:10;;;;;;;16.03;14.43;;;16.90;99.90;;;;;;5012461;28;20218;-66
2021/07/07 02:09:35;;;;;;;15.87;14.27;;;16.90;99.90;;;;;;5012227;28;20213;-65
2021/07/07 02:12:01;;;;;;;14.77;13.33;;;17.00;99.90;;;;;;5012489;28;20225;-66
2021/07/07 02:14:26;;;;;;;15.80;14.40;;;16.90;99.90;;;;;;5020234;28;20162;-65
2021/07/07 02:16:52;;;;;;;15.70;14.10;;;16.90;99.90;;;;;;5032018;28;20670;-65
2021/07/07 02:19:18;;;;;;;15.70;14.20;;;16.90;99.90;;;;;;5031841;28;20174;-64
2021/07/07 02:21:43;;;;;;;15.53;14.03;;;17.00;99.90;;;;;;5032165;28;20182;-65
2021/07/07 02:24:09;;;;;;;14.73;13.33;;;16.90;99.90;;;;;;5032081;28;20182;-66
2021/07/07 02:26:34;;;;;;;14.67;13.20;;;16.90;99.90;;;;;;5031925;28;20640;-65
2021/07/07 02:29:00;;;;;;;13.50;12.20;;;16.90;99.90;;;;;;5031533;28;20205;-66
2021/07/07 02:31:26;;;;;;;12.60;11.50;;;16.90;99.90;;;;;;5031973;28;20178;-66
2021/07/07 02:33:51;;;;;;;13.47;12.13;;;16.90;99.90;;;;;;5031995;28;20257;-65
2021/07/07 02:36:17;;;;;;;15.97;12.30;;;16.80;99.90;;;;;;5031913;28;20166;-65
2021/07/07 02:38:43;;;;;;;13.87;12.50;;;16.80;99.90;;;;;;5031507;28;20190;-66
2021/07/07 02:41:08;;;;;;;13.50;12.10;;;16.80;99.90;;;;;;5015079;28;20554;-67
2021/07/07 02:43:34;;;;;;;13.73;12.43;;;16.80;99.90;;;;;;5012117;28;20209;-65
2021/07/07 02:46:00;;;;;;;12.50;11.20;;;16.90;99.90;;;;;;5012094;28;20175;-66
2021/07/07 02:48:25;;;;;;;13.10;11.70;;;16.90;99.90;;;;;;5015224;28;20202;-66
2021/07/07 02:50:51;;;;;;;14.43;11.00;;;16.90;99.90;;;;;;5016093;28;20206;-65
2021/07/07 02:53:19;;;;;;;12.43;11.23;;;16.90;99.90;;;;;;5015986;28;20656;-64
2021/07/07 02:55:46;;;;;;;15.53;10.07;;;17.00;99.90;;;;;;5016036;28;20200;-66
2021/07/07 02:58:12;;;;;;;13.80;12.50;;;16.90;99.90;;;;;;5015673;28;20461;-65
2021/07/07 03:00:39;;;;;;;14.30;12.90;;;16.90;99.90;;;;;;5015777;28;20887;-66
2021/07/07 03:03:09;;;;;;;14.10;11.97;;;16.90;99.90;;;;;;5015909;28;20453;-66
2021/07/07 03:05:45;;;;;;;13.97;12.53;;;16.90;99.90;;;;;;5014556;28;20903;-65
2021/07/07 03:08:13;;;;;;;9.13;8.10;;;16.90;99.90;;;;;;5015553;28;20464;-66
2021/07/07 03:10:44;;;;;;;14.53;8.20;;;16.90;99.90;;;;;;5015518;28;20413;-65
2021/07/07 03:13:10;;;;;;;8.50;7.70;;;16.90;99.90;;;;;;5015684;28;20417;-65
2021/07/07 03:15:37;;;;;;;8.07;6.50;;;16.90;99.90;;;;;;5031591;28;20570;-65
2021/07/07 03:18:04;;;;;;;9.73;6.27;;;16.90;99.90;;;;;;5035274;28;20209;-65
2021/07/07 03:20:30;;;;;;;6.30;5.77;;;16.80;99.90;;;;;;5035036;28;20531;-65
2021/07/07 03:22:56;;;;;;;5.30;4.90;;;16.70;99.90;;;;;;5035233;28;20492;-65
2021/07/07 03:25:22;;;;;;;5.27;4.33;;;16.60;99.90;;;;;;5035162;28;20415;-64
2021/07/07 03:27:49;;;;;;;9.30;6.20;;;16.50;99.90;;;;;;5035154;28;20190;-65
2021/07/07 03:30:16;;;;;;;6.90;4.37;;;16.40;99.90;;;;;;5034858;28;20548;-65
2021/07/07 03:32:42;;;;;;;3.80;3.50;;;16.40;99.90;;;;;;5035278;28;20495;-65
2021/07/07 03:35:08;;;;;;;5.83;2.70;;;16.30;99.90;;;;;;5035218;28;20488;-65
2021/07/07 03:37:34;;;;;;;3.60;3.30;;;16.30;99.90;;;;;;5035191;28;20471;-64
2021/07/07 03:39:59;;;;;;;6.23;4.20;;;16.30;99.90;;;;;;5026020;28;20859;-64
2021/07/07 03:42:25;;;;;;;6.20;3.87;;;16.30;99.90;;;;;;5015309;28;20183;-64
2021/07/07 03:44:50;;;;;;;3.87;3.57;;;16.40;99.90;;;;;;5015141;28;20181;-65
2021/07/07 03:47:16;;;;;;;3.50;3.20;;;16.40;99.90;;;;;;5015144;28;20198;-65
2021/07/07 03:49:41;;;;;;;4.90;3.60;;;16.40;99.90;;;;;;5014687;28;20302;-64
2021/07/07 03:52:07;;;;;;;4.03;3.60;;;16.50;99.90;;;;;;5014913;28;20175;-67
2021/07/07 03:54:33;;;;;;;3.00;2.80;;;16.50;99.90;;;;;;5014928;28;20241;-66
2021/07/07 03:56:59;;;;;;;3.70;3.50;;;16.40;99.90;;;;;;5032054;22;20198;31
2021/07/07 03:59:24;;;;;;;4.50;4.13;;;16.40;99.90;;;;;;4992255;28;20204;-62
2021/07/07 04:01:50;;;;;;;5.30;4.80;;;16.40;99.90;;;;;;4995104;28;20676;-61
2021/07/07 04:04:17;;;;;;;7.53;4.80;;;16.50;99.90;;;;;;4995198;28;20172;-61
2021/07/07 04:06:43;;;;;;;6.20;4.00;;;16.50;99.90;;;;;;4995037;28;20912;-61
2021/07/07 04:09:09;;;;;;;4.33;3.97;;;16.50;99.90;;;;;;4994654;28;20465;-61
2021/07/07 04:11:35;;;;;;;5.43;4.70;;;16.60;99.90;;;;;;4994884;28;20892;-61
2021/07/07 04:14:01;;;;;;;5.57;5.07;;;16.60;99.90;;;;;;4994785;28;20426;-61
2021/07/07 04:16:27;;;;;;;4.50;4.10;;;16.70;99.90;;;;;;4994933;28;20172;-61
2021/07/07 04:18:53;;;;;;;5.60;5.03;;;16.70;99.90;;;;;;4994495;28;20234;-62
2021/07/07 04:21:18;;;;;;;4.50;4.10;;;16.60;99.90;;;;;;4994724;28;20207;-63
2021/07/07 04:23:44;;;;;;;4.93;4.63;;;16.60;99.90;;;;;;4994767;28;20938;-61
2021/07/07 04:26:10;;;;;;;5.10;4.70;;;16.70;99.90;;;;;;4994660;28;20263;-61
2021/07/07 04:28:36;;;;;;;4.67;4.37;;;16.60;99.90;;;;;;4994373;28;20593;-61
2021/07/07 04:31:01;;;;;;;5.07;4.67;;;16.60;99.90;;;;;;4994545;28;20414;-61
2021/07/07 04:33:27;;;;;;;6.67;6.07;;;16.60;99.90;;;;;;4994547;28;20178;-61
2021/07/07 04:35:52;;;;;;;5.10;4.60;;;16.70;99.90;;;;;;4994279;28;20246;-62
2021/07/07 04:38:18;;;;;;;5.07;4.60;;;16.70;99.90;;;;;;4994283;28;20254;-61
2021/07/07 04:40:43;;;;;;;4.90;4.50;;;16.70;99.90;;;;;;4994286;28;20172;-60
2021/07/07 04:43:09;;;;;;;5.00;4.50;;;16.70;99.90;;;;;;4994194;28;20200;-60
2021/07/07 04:45:35;;;;;;;6.53;5.60;;;16.70;99.90;;;;;;4994363;28;20172;-61
2021/07/07 04:48:00;;;;;;;5.80;5.20;;;16.60;99.90;;;;;;4994182;28;20231;-60
2021/07/07 04:50:26;;;;;;;6.77;6.17;;;16.70;99.90;;;;;;4993941;28;20200;-61
2021/07/07 04:52:52;;;;;;;6.13;5.60;;;16.60;99.90;;;;;;4992888;28;20168;-62
2021/07/07 04:55:17;;;;;;;6.30;5.80;;;16.70;99.90;;;;;;4994172;28;20659;-62
2021/07/07 04:57:43;;;;;;;6.43;5.87;;;16.60;99.90;;;;;;4994163;28;20590;-62
2021/07/07 05:00:21;;;;;;;7.60;7.00;;;16.60;99.90;;;;;;4993667;28;20422;-62
2021/07/07 05:02:48;;;;;;;8.23;7.43;;;16.60;99.90;;;;;;4993928;28;20924;-62
2021/07/07 05:05:15;;;;;;;7.00;6.40;;;16.60;99.90;;;;;;4993974;28;20422;-61
2021/07/07 05:07:41;;;;;;;6.63;6.13;;;16.60;99.90;;;;;;4993860;28;20496;-63
2021/07/07 05:10:08;;;;;;;6.53;5.93;;;16.60;99.90;;;;;;4992917;28;20458;-62
2021/07/07 05:12:34;;;;;;;5.53;5.13;;;16.60;99.90;;;;;;4993857;28;20537;-62
2021/07/07 05:15:00;;;;;;;5.80;5.40;;;16.70;99.90;;;;;;4993648;28;20938;-62
2021/07/07 05:17:27;;;;;;;6.77;6.17;;;16.70;99.90;;;;;;4993632;28;20447;-61
2021/07/07 05:19:53;;;;;;;10.30;9.40;;;16.80;99.90;;;;;;4993428;28;20794;-62
2021/07/07 05:22:18;;;;;;;7.70;6.40;;;16.80;99.90;;;;;;4993667;28;20422;-62
2021/07/07 05:24:45;;;;;;;8.07;7.20;;;16.90;99.90;;;;;;4993680;28;20419;-62
2021/07/07 05:27:11;;;;;;;6.47;5.90;;;16.90;99.90;;;;;;4993471;28;20183;-62
2021/07/07 05:29:37;;;;;;;7.37;6.80;;;17.00;99.90;;;;;;4993237;28;20801;-62
2021/07/07 05:32:03;;;;;;;6.93;6.33;;;17.00;99.90;;;;;;4993490;28;20422;-62
2021/07/07 05:34:28;;;;;;;7.37;6.73;;;17.00;99.90;;;;;;4993463;28;20203;-63
2021/07/07 05:36:54;;;;;;;6.70;6.17;;;17.10;99.90;;;;;;4993467;28;20740;-62
2021/07/07 05:39:19;;;;;;;6.53;6.03;;;17.10;99.90;;;;;;4993045;28;20167;-62
2021/07/07 05:41:45;;;;;;;5.93;5.53;;;17.30;99.90;;;;;;4993337;28;20307;-63
2021/07/07 05:44:10;;;;;;;8.23;6.07;;;17.30;99.90;;;;;;4993286;28;20176;-62
2021/07/07 05:46:36;;;;;;;11.60;6.30;;;17.40;99.90;;;;;;4993333;28;20180;-63
2021/07/07 05:49:02;;;;;;;7.10;4.93;;;17.40;99.90;;;;;;4992769;28;20214;-62
2021/07/07 05:51:28;;;;;;;6.70;6.13;;;17.50;99.90;;;;;;4993228;28;20258;-62
2021/07/07 05:53:53;;;;;;;5.40;4.93;;;17.50;99.90;;;;;;4993204;28;20510;-61
2021/07/07 05:56:19;;;;;;;4.70;4.30;;;17.50;99.90;;;;;;4992068;28;20183;-65
2021/07/07 05:58:46;;;;;;;6.00;5.03;;;17.50;99.90;;;;;;4985143;28;20247;-63
2021/07/07 06:01:12;;;;;;;5.47;4.50;;;17.60;99.90;;;;;;4979744;28;20544;-63
2021/07/07 06:03:38;;;;;;;5.13;4.73;;;17.60;99.90;;;;;;4973571;28;20426;-63
2021/07/07 06:06:04;;;;;;;4.30;3.90;;;17.70;99.90;;;;;;4973595;28;20419;-62
2021/07/07 06:08:29;;;;;;;4.10;3.80;;;17.80;99.90;;;;;;4973611;28;20322;-63
2021/07/07 06:10:55;;;;;;;4.70;4.30;;;17.90;99.90;;;;;;4992917;28;20254;-63
2021/07/07 06:13:20;;;;;;;4.10;3.70;;;18.00;99.90;;;;;;4992533;28;20535;-63
2021/07/07 06:15:46;;;;;;;4.43;3.77;;;18.00;99.90;;;;;;4991951;28;20677;-63
2021/07/07 06:18:11;;;;;;;4.53;4.23;;;18.10;99.90;;;;;;4992527;28;20199;-66
2021/07/07 06:20:37;;;;;;;4.40;4.00;;;18.00;99.90;;;;;;4992588;28;20649;-63
2021/07/07 06:23:03;;;;;;;4.30;4.00;;;18.00;99.90;;;;;;4992647;28;20226;-65
2021/07/07 06:25:28;;;;;;;5.57;4.97;;;17.80;99.90;;;;;;4992487;28;20198;-63
2021/07/07 06:27:54;;;;;;;4.80;4.40;;;17.70;99.90;;;;;;4991574;28;20270;-63
2021/07/07 06:30:26;;;;;;;5.23;3.87;;;17.60;99.90;;;;;;4992021;28;20290;-63
2021/07/07 06:32:54;;;;;;;3.80;3.50;;;17.70;99.90;;;;;;4992712;28;20171;-63
2021/07/07 06:35:20;;;;;;;5.03;3.70;;;17.70;99.90;;;;;;4991597;28;20494;-63
2021/07/07 06:37:48;;;;;;;3.70;3.40;;;17.80;99.90;;;;;;4966674;28;20457;-65
2021/07/07 06:40:16;;;;;;;4.70;3.67;;;17.90;99.90;;;;;;4975652;28;21021;-63
2021/07/07 06:42:42;;;;;;;5.13;4.63;;;18.00;99.90;;;;;;4992606;28;20458;-63
2021/07/07 06:45:09;;;;;;;5.00;4.60;;;18.00;99.90;;;;;;4992272;28;20938;-63
2021/07/07 06:47:35;;;;;;;4.77;4.37;;;18.00;99.90;;;;;;4992099;28;20689;-63
2021/07/07 06:50:03;;;;;;;11.07;10.00;;;18.00;99.90;;;;;;4992124;28;20947;-65
2021/07/07 06:52:28;;;;;;;6.20;5.67;;;18.00;99.90;;;;;;4992471;28;20484;-63
2021/07/07 06:54:54;;;;;;;5.20;4.70;;;18.00;99.90;;;;;;4992455;28;20419;-64
2021/07/07 06:57:19;;;;;;;4.50;4.03;;;18.00;99.90;;;;;;4992240;28;20196;-63
2021/07/07 06:59:45;;;;;;;4.57;3.90;;;18.10;99.90;;;;;;4991446;28;20180;-63
2021/07/07 07:02:10;;;;;;;6.53;4.80;;;18.00;99.90;;;;;;4992222;28;20261;-64
2021/07/07 07:04:36;;;;;;;4.90;4.37;;;17.80;99.90;;;;;;4992459;28;20262;-63
2021/07/07 07:07:02;;;;;;;4.87;4.47;;;17.80;99.90;;;;;;4992146;28;20699;-63
2021/07/07 07:09:27;;;;;;;4.77;4.37;;;17.70;99.90;;;;;;4991864;28;20282;-63
2021/07/07 07:11:54;;;;;;;10.00;7.13;;;17.80;99.90;;;;;;4992205;28;20415;-64
2021/07/07 07:14:19;;;;;;;5.20;4.70;;;17.70;99.90;;;;;;4990864;28;20637;-63
2021/07/07 07:16:45;;;;;;;5.20;4.07;;;17.80;99.90;;;;;;4992175;28;20425;-63
2021/07/07 07:19:11;;;;;;;4.70;4.30;;;17.90;99.90;;;;;;4991778;28;20216;-64
2021/07/07 07:21:37;;;;;;;4.50;4.07;;;17.80;99.90;;;;;;4992146;28;20549;-64
2021/07/07 07:24:03;;;;;;;8.30;3.90;;;17.90;99.90;;;;;;4992020;28;20434;-63
2021/07/07 07:26:29;;;;;;;3.63;3.33;;;17.90;99.90;;;;;;4992040;28;20672;-63
2021/07/07 07:28:56;;;;;;;4.03;2.80;;;18.00;99.90;;;;;;4991652;28;20566;-63
2021/07/07 07:31:22;;;;;;;6.70;4.00;;;18.10;99.90;;;;;;4992091;28;20437;-63
2021/07/07 07:33:49;;;;;;;4.67;3.70;;;18.10;99.90;;;;;;4994330;28;20824;-62
2021/07/07 07:36:15;;;;;;;16.43;12.93;;;18.30;99.90;;;;;;4995738;28;20410;-62
2021/07/07 07:38:43;;;;;;;11.20;8.07;;;18.40;99.90;;;;;;4995023;28;20453;-62
2021/07/07 07:41:09;;;;;;;4.13;3.63;;;18.50;99.90;;;;;;4994384;28;20935;-62
2021/07/07 07:43:35;;;;;;;6.60;3.03;;;18.40;99.90;;;;;;4995581;28;20418;-62
2021/07/07 07:46:02;;;;;;;6.10;2.87;;;18.20;99.90;;;;;;4995558;28;20592;-62
2021/07/07 07:48:28;;;;;;;3.10;2.90;;;18.30;99.90;;;;;;4994884;28;20446;-62
2021/07/07 07:50:54;;;;;;;6.30;3.40;;;18.40;99.90;;;;;;4995114;28;20530;-62
2021/07/07 07:53:20;;;;;;;5.50;3.43;;;18.40;99.90;;;;;;4995103;28;20509;-62
2021/07/07 07:55:45;;;;;;;3.70;2.90;;;18.60;99.90;;;;;;4995328;28;20936;-63
2021/07/07 07:58:17;;;;;;;4.40;2.83;;;18.80;99.90;;;;;;4984988;28;20212;-62
2021/07/07 08:00:44;;;;;;;3.23;2.30;;;18.80;99.90;;;;;;4975598;28;20172;-62
2021/07/07 08:03:09;;;;;;;4.20;3.80;;;18.90;99.90;;;;;;4975812;28;20428;-64
2021/07/07 08:05:35;;;;;;;6.30;4.10;;;19.00;99.90;;;;;;4976368;28;21158;-62
2021/07/07 08:08:02;;;;;;;3.53;2.83;;;19.00;99.90;;;;;;4994749;28;20207;-62
2021/07/07 08:10:28;;;;;;;4.30;3.90;;;18.90;99.90;;;;;;4994641;28;20195;-61
2021/07/07 08:12:54;;;;;;;3.70;3.40;;;18.90;99.90;;;;;;4994947;28;20415;-61
2021/07/07 08:15:20;;;;;;;3.40;3.10;;;18.90;99.90;;;;;;4994835;28;20430;-61
2021/07/07 08:17:46;;;;;;;3.23;2.97;;;19.00;99.90;;;;;;4994869;28;20192;-61
2021/07/07 08:20:12;;;;;;;4.50;4.03;;;19.10;99.90;;;;;;4993505;28;20434;-61
2021/07/07 08:22:39;;;;;;;5.30;4.23;;;19.30;99.90;;;;;;4994440;28;20576;-62
2021/07/07 08:25:09;;;;;;;4.90;4.40;;;19.30;99.90;;;;;;4994801;28;20505;-61
2021/07/07 08:27:35;;;;;;;4.07;3.50;;;19.10;99.90;;;;;;4994573;28;20876;-61
2021/07/07 08:30:02;;;;;;;4.17;3.70;;;18.90;99.90;;;;;;4994346;28;20466;-61
2021/07/07 08:32:27;;;;;;;9.27;7.57;;;18.90;99.90;;;;;;4993465;28;20502;-60
2021/07/07 08:34:53;;;;;;;4.23;3.40;;;18.90;99.90;;;;;;4993510;28;20995;-61
2021/07/07 08:37:18;;;;;;;3.73;3.10;;;18.90;99.90;;;;;;4993130;28;20282;-60
2021/07/07 08:39:44;;;;;;;4.17;2.73;;;18.80;99.90;;;;;;4994327;28;20176;-61
2021/07/07 08:42:09;;;;;;;7.50;3.97;;;18.90;99.90;;;;;;4994406;28;20183;-62
2021/07/07 08:44:35;;;;;;;3.87;3.40;;;18.70;99.90;;;;;;4993427;28;20828;-59
2021/07/07 08:47:01;;;;;;;3.40;3.00;;;18.60;99.90;;;;;;4992943;28;20318;-60
2021/07/07 08:49:26;;;;;;;5.13;4.13;;;18.40;99.90;;;;;;4993800;28;20199;-60
2021/07/07 08:51:52;;;;;;;4.80;3.63;;;18.40;99.90;;;;;;4994257;28;20246;-61
2021/07/07 08:54:18;;;;;;;10.30;6.03;;;18.30;99.90;;;;;;4994258;28;20246;-59
2021/07/07 08:56:45;;;;;;;5.10;3.80;;;18.30;99.90;;;;;;5009040;28;20171;-59
2021/07/07 08:59:13;;;;;;;3.17;2.87;;;18.40;99.90;;;;;;4993415;28;20525;-60
2021/07/07 09:02:06;;;;;;;6.33;3.00;;;18.60;99.90;;;;;;4983618;28;21223;-61
2021/07/07 09:04:34;;;;;;;2.90;2.20;;;19.40;99.90;;;;;;4986073;28;20429;-61
2021/07/07 09:07:10;;;;;;;3.43;2.93;;;20.10;99.90;;;;;;4989273;28;20435;-62
2021/07/07 09:09:41;;;;;;;3.57;2.60;;;20.60;99.90;;;;;;4989727;28;20462;-61
2021/07/07 09:12:17;;;;;;;3.10;2.80;;;20.50;99.90;;;;;;4990566;28;20419;-60
2021/07/07 09:14:45;;;;;;;3.57;2.57;;;20.10;99.90;;;;;;4990679;28;20472;-61
2021/07/07 09:17:16;;;;;;;2.63;2.40;;;20.20;99.90;;;;;;4990560;28;20419;-61
2021/07/07 09:19:43;;;;;;;2.60;2.00;;;20.50;99.90;;;;;;4990251;28;20430;-61
2021/07/07 09:22:11;;;;;;;2.20;2.00;;;20.50;99.90;;;;;;4990367;28;20840;-61
2021/07/07 09:24:39;;;;;;;3.03;1.93;;;20.50;99.90;;;;;;4990521;28;20430;-61
2021/07/07 09:27:11;;;;;;;2.80;2.40;;;20.50;99.90;;;;;;4990384;28;20426;-61
2021/07/07 09:29:48;;;;;;;2.00;1.63;;;20.40;99.90;;;;;;4990087;28;20473;-62
2021/07/07 09:32:16;;;;;;;3.20;2.57;;;20.30;99.90;;;;;;4990405;28;20457;-62
2021/07/07 09:34:44;;;;;;;4.50;2.37;;;20.20;99.90;;;;;;4990388;28;20501;-62
2021/07/07 09:37:20;;;;;;;5.00;3.17;;;20.00;99.90;;;;;;4990529;28;20858;-61
2021/07/07 09:39:46;;;;;;;6.80;2.50;;;20.00;99.90;;;;;;4989940;28;20533;-61
2021/07/07 09:42:11;;;;;;;3.50;2.73;;;20.20;99.90;;;;;;4989900;28;21114;-61
2021/07/07 09:44:37;;;;;;;2.60;2.23;;;19.80;99.90;;;;;;4990191;28;20175;-63
2021/07/07 09:47:04;;;;;;;2.93;2.73;;;19.60;99.90;;;;;;4990212;28;20270;-62
2021/07/07 09:49:33;;;;;;;2.77;2.57;;;19.40;99.90;;;;;;4992826;28;20223;-60
2021/07/07 09:52:00;;;;;;;3.10;2.80;;;19.00;99.90;;;;;;4991720;28;20422;-61
2021/07/07 09:54:25;;;;;;;4.57;3.00;;;19.10;99.90;;;;;;4993051;28;20462;-60
2021/07/07 09:56:51;;;;;;;4.13;3.40;;;19.20;99.90;;;;;;4992525;28;20454;-61
2021/07/07 09:59:17;;;;;;;4.20;3.00;;;19.20;99.90;;;;;;5015250;23;20223;-64
2021/07/07 10:01:46;;;;;;;2.70;2.50;;;19.50;99.90;;;;;;4992972;28;20182;-62
2021/07/07 10:04:17;;;;;;;3.00;2.80;;;19.40;99.90;;;;;;4992962;28;20164;-64
2021/07/07 10:06:44;;;;;;;3.20;2.20;;;19.20;99.90;;;;;;4992846;28;20459;-64
2021/07/07 10:09:10;;;;;;;2.67;2.47;;;19.20;99.90;;;;;;4992012;28;20450;-62
2021/07/07 10:11:37;;;;;;;3.53;2.23;;;19.50;99.90;;;;;;4992693;28;20489;-64
2021/07/07 10:14:03;;;;;;;3.80;3.20;;;19.60;99.90;;;;;;4992240;28;20419;-63
2021/07/07 10:16:30;;;;;;;2.60;2.40;;;19.70;99.90;;;;;;4992391;28;20552;-63
2021/07/07 10:18:55;;;;;;;2.37;2.07;;;19.90;99.90;;;;;;4992022;28;20450;-63
2021/07/07 10:21:22;;;;;;;2.13;2.00;;;19.90;99.90;;;;;;4992301;28;20426;-64
2021/07/07 10:23:49;;;;;;;1.80;1.70;;;19.80;99.90;;;;;;4992313;28;20196;-64
2021/07/07 10:26:17;;;;;;;2.83;2.00;;;19.70;99.90;;;;;;4992217;28;20426;-63
2021/07/07 10:28:43;;;;;;;3.10;2.27;;;19.90;99.90;;;;;;4991926;28;20451;-62
2021/07/07 10:31:09;;;;;;;1.90;1.80;;;20.00;99.90;;;;;;4992581;28;20423;-63
2021/07/07 10:33:36;;;;;;;5.17;2.50;;;19.70;99.90;;;;;;4992582;28;20414;-63
2021/07/07 10:36:21;;;;;;;2.10;2.00;;;19.50;99.90;;;;;;4991205;28;20264;-62
2021/07/07 10:38:54;;;;;;;2.87;2.10;;;20.00;99.90;;;;;;4991759;28;20812;-63
2021/07/07 10:41:41;;;;;;;4.37;2.77;;;20.50;99.90;;;;;;4999721;28;20992;-63
2021/07/07 10:44:08;;;;;;;2.53;2.37;;;20.60;99.90;;;;;;4991544;28;20446;-63
2021/07/07 10:46:50;;;;;;;2.40;2.20;;;20.40;99.90;;;;;;4990990;28;20505;-63
2021/07/07 10:49:27;;;;;;;1.87;1.77;;;20.10;99.90;;;;;;4992371;28;20454;-63
2021/07/07 10:51:55;;;;;;;2.13;2.00;;;20.00;99.90;;;;;;4991637;28;20426;-63
2021/07/07 10:54:32;;;;;;;2.20;2.10;;;20.00;99.90;;;;;;4992269;28;20422;-63
2021/07/07 10:57:00;;;;;;;2.67;2.30;;;19.90;99.90;;;;;;4992096;28;20434;-61
2021/07/07 10:59:36;;;;;;;5.93;2.40;;;20.10;99.90;;;;;;4991837;28;20967;-63
2021/07/07 11:02:06;;;;;;;2.27;2.07;;;20.40;99.90;;;;;;4992074;28;20434;-63
2021/07/07 11:04:37;;;;;;;1.80;1.70;;;20.20;99.90;;;;;;4991967;28;20459;-63
2021/07/07 11:07:23;;;;;;;1.90;1.67;;;20.20;99.90;;;;;;4992199;28;20422;-63
2021/07/07 11:09:52;;;;;;;2.50;2.23;;;20.20;99.90;;;;;;4987497;28;20484;-62
2021/07/07 11:12:39;;;;;;;2.00;1.90;;;20.50;99.90;;;;;;4991979;28;20588;-63
2021/07/07 11:15:24;;;;;;;1.80;1.70;;;20.50;99.90;;;;;;4961904;28;20459;-62
2021/07/07 11:17:54;;;;;;;2.73;1.83;;;20.40;99.90;;;;;;5010176;28;20438;-62
2021/07/07 11:20:29;;;;;;;2.40;2.13;;;20.40;99.90;;;;;;4996729;28;20418;-61
2021/07/07 11:23:05;;;;;;;2.90;1.90;;;20.30;99.90;;;;;;4997434;28;20417;-63
2021/07/07 11:25:33;;;;;;;1.83;1.73;;;20.50;99.90;;;;;;4998627;28;20497;-64
2021/07/07 11:28:00;;;;;;;2.83;2.50;;;20.70;99.90;;;;;;4993591;28;20493;-64
2021/07/07 11:30:26;;;;;;;3.53;3.23;;;20.80;99.90;;;;;;5011625;28;20453;-63
2021/07/07 11:33:06;;;;;;;3.13;2.03;;;21.00;99.90;;;;;;5008077;28;20628;-63
2021/07/07 11:35:37;;;;;;;2.77;1.90;;;21.30;99.90;;;;;;4989540;28;20676;-63
2021/07/07 11:38:10;;;;;;;3.00;2.27;;;21.90;99.90;;;;;;4992112;28;20654;-63
2021/07/07 11:40:40;;;;;;;2.00;1.90;;;22.00;99.90;;;;;;4999560;28;20454;-64
2021/07/07 11:43:07;;;;;;;1.83;1.50;;;22.30;99.90;;;;;;4992236;28;20958;-63
2021/07/07 11:45:39;;;;;;;1.70;1.60;;;22.30;99.90;;;;;;4992117;28;20468;-63
2021/07/07 11:48:29;;;;;;;1.60;1.50;;;22.10;99.90;;;;;;4991651;28;20508;-62
2021/07/07 11:51:01;;;;;;;1.73;1.63;;;22.20;99.90;;;;;;4992354;28;20431;-63
2021/07/07 11:53:35;;;;;;;2.83;1.93;;;22.30;99.90;;;;;;4991699;28;20445;-61
2021/07/07 11:56:07;;;;;;;1.40;1.30;;;22.40;99.90;;;;;;4991937;28;20457;-63
2021/07/07 11:58:48;;;;;;;1.97;1.77;;;22.60;99.90;;;;;;4991380;28;20501;-63
2021/07/07 12:01:24;;;;;;;1.63;1.53;;;23.20;99.90;;;;;;4991371;28;20446;-64
2021/07/07 12:04:00;;;;;;;2.37;1.97;;;23.90;99.90;;;;;;4991662;28;20422;-63
2021/07/07 12:06:28;;;;;;;1.50;1.40;;;24.80;99.90;;;;;;4991909;28;20820;-63
2021/07/07 12:08:54;;;;;;;1.33;1.23;;;25.90;99.90;;;;;;4991156;28;20489;-63
2021/07/07 12:11:20;;;;;;;1.60;1.50;;;27.10;99.90;;;;;;4991676;28;20441;-63
2021/07/07 12:13:48;;;;;;;2.10;1.30;;;27.50;99.90;;;;;;4990239;28;20183;-63
2021/07/07 12:16:25;;;;;;;2.00;1.80;;;27.40;99.90;;;;;;4991752;28;20552;-63
2021/07/07 12:19:07;;;;;;;1.30;1.20;;;26.50;99.90;;;;;;4991156;28;20442;-61
2021/07/07 12:21:39;;;;;;;1.90;1.00;;;26.30;99.90;;;;;;4991440;28;20430;-63
2021/07/07 12:24:07;;;;;;;1.27;1.27;;;25.10;99.90;;;;;;4991711;28;20501;-63
2021/07/07 12:26:36;;;;;;;1.53;1.43;;;24.70;99.90;;;;;;4991537;28;20829;-63
2021/07/07 12:29:03;;;;;;;2.40;1.60;;;23.60;99.90;;;;;;4992143;28;20565;-64
2021/07/07 12:31:36;;;;;;;1.80;1.70;;;22.90;99.90;;;;;;4993349;28;20513;-62
2021/07/07 12:34:01;;;;;;;1.70;1.47;;;22.80;99.90;;;;;;4994614;28;20447;-64
2021/07/07 12:36:31;;;;;;;2.27;1.87;;;22.90;99.90;;;;;;4993953;28;20529;-64
2021/07/07 12:39:09;;;;;;;2.23;2.03;;;23.20;99.90;;;;;;4993518;28;20387;-64
2021/07/07 12:41:40;;;;;;;1.70;1.60;;;23.20;99.90;;;;;;4977173;28;20537;-63
2021/07/07 12:44:09;;;;;;;1.53;1.20;;;23.30;99.90;;;;;;4994264;28;20429;-64